sensor_id;sensor_type;location;lat;lon;timestamp;P1;durP1;ratioP1;P2;durP2;ratioP2
35562;SDS011;21665;40.108;18.302;2022-12-11T11:56:31;22.75;;;12.80;;
35562;SDS011;21665;40.108;18.302;2022-12-11T11:59:05;28.48;;;14.13;;
35562;SDS011;21665;40.108;18.302;2022-12-11T12:01:40;28.50;;;14.07;;
35562;SDS011;21665;40.108;18.302;2022-12-11T12:04:07;25.77;;;12.98;;
35562;SDS011;21665;40.108;18.302;2022-12-11T12:17:35;23.58;;;14.13;;
35562;SDS011;21665;40.108;18.302;2022-12-11T12:31:52;20.63;;;16.38;;
35562;SDS011;21665;40.108;18.302;2022-12-11T12:44:18;24.58;;;15.43;;
35562;SDS011;21665;40.108;18.302;2022-12-11T12:47:02;30.75;;;15.40;;
35562;SDS011;21665;40.108;18.302;2022-12-11T12:54:38;27.92;;;16.25;;
35562;SDS011;21665;40.108;18.302;2022-12-11T12:57:37;21.90;;;15.13;;
35562;SDS011;21665;40.108;18.302;2022-12-11T13:01:07;25.67;;;15.68;;
35562;SDS011;21665;40.108;18.302;2022-12-11T13:04:06;27.15;;;16.60;;
35562;SDS011;21665;40.108;18.302;2022-12-11T13:07:10;28.65;;;17.50;;
35562;SDS011;21665;40.108;18.302;2022-12-11T13:12:42;34.50;;;17.98;;
35562;SDS011;21665;40.108;18.302;2022-12-11T13:15:29;27.50;;;18.20;;
35562;SDS011;21665;40.108;18.302;2022-12-11T13:18:28;35.88;;;17.40;;
35562;SDS011;21665;40.108;18.302;2022-12-11T13:23:50;24.73;;;15.73;;
35562;SDS011;21665;40.108;18.302;2022-12-11T13:26:30;28.70;;;16.45;;
35562;SDS011;21665;40.108;18.302;2022-12-11T13:28:58;34.17;;;17.30;;
35562;SDS011;21665;40.108;18.302;2022-12-11T13:31:34;28.92;;;16.02;;
35562;SDS011;21665;40.108;18.302;2022-12-11T13:34:21;29.83;;;15.57;;
35562;SDS011;21665;40.108;18.302;2022-12-11T13:36:50;26.95;;;15.90;;
35562;SDS011;21665;40.108;18.302;2022-12-11T13:39:20;25.65;;;14.63;;
35562;SDS011;21665;40.108;18.302;2022-12-11T13:42:00;23.40;;;15.32;;
35562;SDS011;21665;40.108;18.302;2022-12-11T13:44:38;24.17;;;15.40;;
35562;SDS011;21665;40.108;18.302;2022-12-11T13:47:09;29.55;;;15.35;;
35562;SDS011;21665;40.108;18.302;2022-12-11T13:49:43;26.02;;;15.32;;
35562;SDS011;21665;40.108;18.302;2022-12-11T13:52:21;26.30;;;15.07;;
35562;SDS011;21665;40.108;18.302;2022-12-11T13:54:54;26.90;;;15.75;;
35562;SDS011;21665;40.108;18.302;2022-12-11T13:57:29;22.30;;;15.80;;
35562;SDS011;21665;40.108;18.302;2022-12-11T13:59:56;25.30;;;16.50;;
35562;SDS011;21665;40.108;18.302;2022-12-11T14:02:28;25.05;;;17.52;;
35562;SDS011;21665;40.108;18.302;2022-12-11T14:05:09;21.45;;;15.68;;
35562;SDS011;21665;40.108;18.302;2022-12-11T14:07:41;21.33;;;15.98;;
35562;SDS011;21665;40.108;18.302;2022-12-11T14:10:17;22.02;;;16.23;;
35562;SDS011;21665;40.108;18.302;2022-12-11T14:15:31;25.25;;;16.33;;
35562;SDS011;21665;40.108;18.302;2022-12-11T14:18:00;23.40;;;16.27;;
35562;SDS011;21665;40.108;18.302;2022-12-11T14:20:29;25.58;;;15.85;;
35562;SDS011;21665;40.108;18.302;2022-12-11T14:23:15;25.65;;;15.52;;
35562;SDS011;21665;40.108;18.302;2022-12-11T14:25:54;26.05;;;16.00;;
35562;SDS011;21665;40.108;18.302;2022-12-11T14:28:35;24.88;;;15.65;;
35562;SDS011;21665;40.108;18.302;2022-12-11T14:31:06;26.58;;;15.38;;
35562;SDS011;21665;40.108;18.302;2022-12-11T14:33:37;26.27;;;15.57;;
35562;SDS011;21665;40.108;18.302;2022-12-11T14:36:08;30.88;;;15.63;;
35562;SDS011;21665;40.108;18.302;2022-12-11T14:38:43;31.15;;;16.25;;
35562;SDS011;21665;40.108;18.302;2022-12-11T14:41:35;34.17;;;16.13;;
35562;SDS011;21665;40.108;18.302;2022-12-11T14:44:11;25.67;;;15.93;;
35562;SDS011;21665;40.108;18.302;2022-12-11T14:46:45;31.25;;;16.98;;
35562;SDS011;21665;40.108;18.302;2022-12-11T14:52:43;27.92;;;15.65;;
35562;SDS011;21665;40.108;18.302;2022-12-11T14:55:18;36.35;;;16.42;;
35562;SDS011;21665;40.108;18.302;2022-12-11T14:58:20;24.52;;;15.75;;
35562;SDS011;21665;40.108;18.302;2022-12-11T15:01:29;36.08;;;17.33;;
35562;SDS011;21665;40.108;18.302;2022-12-11T15:04:03;34.38;;;16.58;;
35562;SDS011;21665;40.108;18.302;2022-12-11T15:06:50;32.75;;;17.02;;
35562;SDS011;21665;40.108;18.302;2022-12-11T15:09:23;24.23;;;15.93;;
35562;SDS011;21665;40.108;18.302;2022-12-11T15:12:11;18.45;;;16.08;;
35562;SDS011;21665;40.108;18.302;2022-12-11T15:17:22;26.00;;;16.80;;
35562;SDS011;21665;40.108;18.302;2022-12-11T15:20:06;30.38;;;17.63;;
35562;SDS011;21665;40.108;18.302;2022-12-11T15:22:35;26.27;;;16.20;;
35562;SDS011;21665;40.108;18.302;2022-12-11T15:25:02;19.65;;;16.35;;
35562;SDS011;21665;40.108;18.302;2022-12-11T15:27:37;27.15;;;17.00;;
35562;SDS011;21665;40.108;18.302;2022-12-11T15:32:44;24.70;;;16.85;;
35562;SDS011;21665;40.108;18.302;2022-12-11T15:35:24;24.92;;;17.95;;
35562;SDS011;21665;40.108;18.302;2022-12-11T15:37:52;32.92;;;17.20;;
35562;SDS011;21665;40.108;18.302;2022-12-11T15:40:20;25.00;;;17.40;;
35562;SDS011;21665;40.108;18.302;2022-12-11T15:42:48;23.77;;;16.35;;
35562;SDS011;21665;40.108;18.302;2022-12-11T15:45:19;28.67;;;18.33;;
35562;SDS011;21665;40.108;18.302;2022-12-11T15:47:48;28.17;;;17.52;;
35562;SDS011;21665;40.108;18.302;2022-12-11T15:50:17;26.67;;;17.17;;
35562;SDS011;21665;40.108;18.302;2022-12-11T15:52:54;28.35;;;18.20;;
35562;SDS011;21665;40.108;18.302;2022-12-11T15:55:22;25.83;;;17.15;;
35562;SDS011;21665;40.108;18.302;2022-12-11T15:57:55;28.17;;;17.10;;
35562;SDS011;21665;40.108;18.302;2022-12-11T16:00:28;25.08;;;17.40;;
35562;SDS011;21665;40.108;18.302;2022-12-11T16:02:55;29.10;;;17.67;;
35562;SDS011;21665;40.108;18.302;2022-12-11T16:05:23;24.90;;;17.25;;
35562;SDS011;21665;40.108;18.302;2022-12-11T16:07:50;33.38;;;17.52;;
35562;SDS011;21665;40.108;18.302;2022-12-11T16:10:18;24.33;;;17.10;;
35562;SDS011;21665;40.108;18.302;2022-12-11T16:12:46;24.52;;;17.52;;
35562;SDS011;21665;40.108;18.302;2022-12-11T16:15:13;25.55;;;16.80;;
35562;SDS011;21665;40.108;18.302;2022-12-11T16:17:40;31.80;;;17.80;;
35562;SDS011;21665;40.108;18.302;2022-12-11T16:20:07;30.55;;;18.20;;
35562;SDS011;21665;40.108;18.302;2022-12-11T16:22:36;24.77;;;18.83;;
35562;SDS011;21665;40.108;18.302;2022-12-11T16:25:02;28.48;;;18.52;;
35562;SDS011;21665;40.108;18.302;2022-12-11T16:27:30;28.20;;;18.75;;
35562;SDS011;21665;40.108;18.302;2022-12-11T16:29:57;30.00;;;20.90;;
35562;SDS011;21665;40.108;18.302;2022-12-11T16:32:23;33.50;;;20.65;;
35562;SDS011;21665;40.108;18.302;2022-12-11T16:34:50;31.35;;;20.42;;
35562;SDS011;21665;40.108;18.302;2022-12-11T16:37:16;31.63;;;20.13;;
35562;SDS011;21665;40.108;18.302;2022-12-11T16:39:43;27.98;;;18.73;;
35562;SDS011;21665;40.108;18.302;2022-12-11T16:42:11;24.77;;;16.95;;
35562;SDS011;21665;40.108;18.302;2022-12-11T16:44:37;30.80;;;17.98;;
35562;SDS011;21665;40.108;18.302;2022-12-11T16:47:04;27.80;;;17.73;;
35562;SDS011;21665;40.108;18.302;2022-12-11T16:49:30;29.27;;;18.63;;
35562;SDS011;21665;40.108;18.302;2022-12-11T16:51:57;33.63;;;19.63;;
35562;SDS011;21665;40.108;18.302;2022-12-11T16:54:23;26.15;;;18.25;;
35562;SDS011;21665;40.108;18.302;2022-12-11T16:56:49;26.70;;;18.00;;
35562;SDS011;21665;40.108;18.302;2022-12-11T16:59:16;22.70;;;18.00;;
35562;SDS011;21665;40.108;18.302;2022-12-11T17:01:42;23.02;;;17.85;;
35562;SDS011;21665;40.108;18.302;2022-12-11T17:04:10;29.50;;;18.80;;
35562;SDS011;21665;40.108;18.302;2022-12-11T17:06:37;30.20;;;17.85;;
35562;SDS011;21665;40.108;18.302;2022-12-11T17:09:03;29.58;;;16.90;;
35562;SDS011;21665;40.108;18.302;2022-12-11T17:11:29;25.15;;;16.55;;
35562;SDS011;21665;40.108;18.302;2022-12-11T17:13:56;27.77;;;18.42;;
35562;SDS011;21665;40.108;18.302;2022-12-11T17:16:24;27.55;;;18.45;;
35562;SDS011;21665;40.108;18.302;2022-12-11T17:18:55;28.38;;;17.55;;
35562;SDS011;21665;40.108;18.302;2022-12-11T17:21:22;24.35;;;16.90;;
35562;SDS011;21665;40.108;18.302;2022-12-11T17:23:48;20.70;;;16.60;;
35562;SDS011;21665;40.108;18.302;2022-12-11T17:26:15;26.40;;;17.23;;
35562;SDS011;21665;40.108;18.302;2022-12-11T17:28:43;25.83;;;16.35;;
35562;SDS011;21665;40.108;18.302;2022-12-11T17:31:14;24.77;;;16.17;;
35562;SDS011;21665;40.108;18.302;2022-12-11T17:33:42;34.25;;;17.20;;
35562;SDS011;21665;40.108;18.302;2022-12-11T17:36:11;26.50;;;17.02;;
35562;SDS011;21665;40.108;18.302;2022-12-11T17:38:40;26.33;;;16.58;;
35562;SDS011;21665;40.108;18.302;2022-12-11T17:41:07;23.95;;;15.57;;
35562;SDS011;21665;40.108;18.302;2022-12-11T17:43:35;22.38;;;15.80;;
35562;SDS011;21665;40.108;18.302;2022-12-11T17:46:02;27.27;;;16.40;;
35562;SDS011;21665;40.108;18.302;2022-12-11T17:48:30;27.38;;;16.73;;
35562;SDS011;21665;40.108;18.302;2022-12-11T17:51:00;26.00;;;17.08;;
35562;SDS011;21665;40.108;18.302;2022-12-11T17:53:28;23.80;;;17.38;;
35562;SDS011;21665;40.108;18.302;2022-12-11T17:55:57;22.52;;;16.48;;
35562;SDS011;21665;40.108;18.302;2022-12-11T17:58:25;23.55;;;17.10;;
35562;SDS011;21665;40.108;18.302;2022-12-11T18:00:52;22.92;;;18.48;;
35562;SDS011;21665;40.108;18.302;2022-12-11T18:03:20;27.08;;;17.83;;
35562;SDS011;21665;40.108;18.302;2022-12-11T18:05:48;27.73;;;18.52;;
35562;SDS011;21665;40.108;18.302;2022-12-11T18:08:16;23.73;;;18.52;;
35562;SDS011;21665;40.108;18.302;2022-12-11T18:10:44;20.13;;;17.85;;
35562;SDS011;21665;40.108;18.302;2022-12-11T18:13:11;24.92;;;18.17;;
35562;SDS011;21665;40.108;18.302;2022-12-11T18:15:40;22.50;;;16.77;;
35562;SDS011;21665;40.108;18.302;2022-12-11T18:18:06;24.17;;;17.77;;
35562;SDS011;21665;40.108;18.302;2022-12-11T18:20:33;30.23;;;18.92;;
35562;SDS011;21665;40.108;18.302;2022-12-11T18:23:00;40.08;;;22.95;;
35562;SDS011;21665;40.108;18.302;2022-12-11T18:25:26;32.67;;;23.45;;
35562;SDS011;21665;40.108;18.302;2022-12-11T18:27:53;32.83;;;23.17;;
35562;SDS011;21665;40.108;18.302;2022-12-11T18:30:20;27.92;;;20.45;;
35562;SDS011;21665;40.108;18.302;2022-12-11T18:32:48;26.50;;;18.42;;
35562;SDS011;21665;40.108;18.302;2022-12-11T18:35:15;29.63;;;18.52;;
35562;SDS011;21665;40.108;18.302;2022-12-11T18:37:42;20.98;;;16.48;;
35562;SDS011;21665;40.108;18.302;2022-12-11T18:40:09;26.02;;;16.88;;
35562;SDS011;21665;40.108;18.302;2022-12-11T18:42:36;19.10;;;14.77;;
35562;SDS011;21665;40.108;18.302;2022-12-11T18:45:03;21.30;;;14.02;;
35562;SDS011;21665;40.108;18.302;2022-12-11T18:47:31;22.80;;;12.82;;
35562;SDS011;21665;40.108;18.302;2022-12-11T18:49:57;23.00;;;12.63;;
35562;SDS011;21665;40.108;18.302;2022-12-11T18:52:24;19.10;;;12.80;;
35562;SDS011;21665;40.108;18.302;2022-12-11T18:54:50;23.77;;;12.57;;
35562;SDS011;21665;40.108;18.302;2022-12-11T18:57:17;23.20;;;12.93;;
35562;SDS011;21665;40.108;18.302;2022-12-11T18:59:49;22.70;;;12.23;;
35562;SDS011;21665;40.108;18.302;2022-12-11T19:02:33;11.80;;;10.50;;
35562;SDS011;21665;40.108;18.302;2022-12-11T19:05:00;16.63;;;10.10;;
35562;SDS011;21665;40.108;18.302;2022-12-11T19:07:36;19.65;;;12.98;;
35562;SDS011;21665;40.108;18.302;2022-12-11T19:10:06;25.55;;;12.98;;
35562;SDS011;21665;40.108;18.302;2022-12-11T19:13:14;18.38;;;11.70;;
35562;SDS011;21665;40.108;18.302;2022-12-11T19:15:41;18.70;;;10.88;;
35562;SDS011;21665;40.108;18.302;2022-12-11T19:18:08;12.82;;;10.60;;
35562;SDS011;21665;40.108;18.302;2022-12-11T19:20:38;20.15;;;10.30;;
35562;SDS011;21665;40.108;18.302;2022-12-11T19:23:13;20.65;;;10.40;;
35562;SDS011;21665;40.108;18.302;2022-12-11T19:25:44;19.52;;;11.32;;
35562;SDS011;21665;40.108;18.302;2022-12-11T19:28:12;14.52;;;10.73;;
35562;SDS011;21665;40.108;18.302;2022-12-11T19:30:43;26.80;;;10.45;;
35562;SDS011;21665;40.108;18.302;2022-12-11T19:33:14;17.13;;;10.82;;
35562;SDS011;21665;40.108;18.302;2022-12-11T19:35:42;16.95;;;10.70;;
35562;SDS011;21665;40.108;18.302;2022-12-11T19:38:14;19.75;;;11.57;;
35562;SDS011;21665;40.108;18.302;2022-12-11T19:41:02;19.90;;;12.57;;
35562;SDS011;21665;40.108;18.302;2022-12-11T19:46:59;22.75;;;12.50;;
35562;SDS011;21665;40.108;18.302;2022-12-11T19:49:26;17.00;;;10.85;;
35562;SDS011;21665;40.108;18.302;2022-12-11T19:54:49;19.10;;;10.48;;
35562;SDS011;21665;40.108;18.302;2022-12-11T19:57:18;25.95;;;12.43;;
35562;SDS011;21665;40.108;18.302;2022-12-11T19:59:47;18.63;;;10.55;;
35562;SDS011;21665;40.108;18.302;2022-12-11T20:02:19;24.95;;;10.55;;
35562;SDS011;21665;40.108;18.302;2022-12-11T20:04:54;21.85;;;11.25;;
35562;SDS011;21665;40.108;18.302;2022-12-11T20:07:24;24.20;;;11.27;;
35562;SDS011;21665;40.108;18.302;2022-12-11T20:09:53;26.20;;;10.32;;
35562;SDS011;21665;40.108;18.302;2022-12-11T20:12:20;24.80;;;11.40;;
35562;SDS011;21665;40.108;18.302;2022-12-11T20:49:51;18.55;;;8.02;;
35562;SDS011;21665;40.108;18.302;2022-12-11T20:52:18;22.45;;;9.63;;
35562;SDS011;21665;40.108;18.302;2022-12-11T20:54:48;19.30;;;10.15;;
35562;SDS011;21665;40.108;18.302;2022-12-11T23:03:06;22.75;;;8.15;;
35562;SDS011;21665;40.108;18.302;2022-12-11T23:05:33;16.35;;;7.20;;
35562;SDS011;21665;40.108;18.302;2022-12-11T23:48:57;26.88;;;9.73;;
35562;SDS011;21665;40.108;18.302;2022-12-11T23:51:27;18.55;;;9.02;;
35562;SDS011;21665;40.108;18.302;2022-12-11T23:53:54;20.98;;;8.55;;
35562;SDS011;21665;40.108;18.302;2022-12-11T23:56:22;22.20;;;8.02;;
35562;SDS011;21665;40.108;18.302;2022-12-11T23:58:51;14.75;;;7.50;;
